createdAt,value
2023-04-29T00:00:47.492Z,1.00
2023-04-29T00:03:34.746Z,0.90
2023-04-29T00:06:22.520Z,1.33
2023-04-29T00:09:09.738Z,1.03
2023-04-29T00:11:56.789Z,1.00
2023-04-29T00:14:43.833Z,1.20
2023-04-29T00:17:31.009Z,1.13
2023-04-29T00:20:18.081Z,1.10
2023-04-29T00:23:05.138Z,1.03
2023-04-29T00:25:53.482Z,1.10
2023-04-29T00:28:40.604Z,1.00
2023-04-29T00:31:27.671Z,0.90
2023-04-29T00:34:14.798Z,0.90
2023-04-29T00:37:02.156Z,1.10
2023-04-29T00:39:49.356Z,1.00
2023-04-29T00:42:36.881Z,1.07
2023-04-29T00:45:24.474Z,0.93
2023-04-29T00:48:11.485Z,1.00
2023-04-29T00:50:58.975Z,1.20
2023-04-29T00:53:47.996Z,0.80
2023-04-29T00:56:39.428Z,1.00
2023-04-29T00:59:32.084Z,1.10
2023-04-29T01:02:19.444Z,1.23
2023-04-29T01:05:06.761Z,1.10
2023-04-29T01:08:37.959Z,1.00
2023-04-29T01:11:34.679Z,1.00
2023-04-29T01:14:23.792Z,0.83
2023-04-29T01:17:18.448Z,0.93
2023-04-29T01:20:07.129Z,1.10
2023-04-29T01:22:54.839Z,0.80
2023-04-29T01:25:43.634Z,1.07
2023-04-29T01:29:07.264Z,1.00
2023-04-29T01:32:13.714Z,1.20
2023-04-29T01:35:22.407Z,1.03
2023-04-29T01:38:12.112Z,1.10
2023-04-29T01:41:15.177Z,1.00
2023-04-29T01:44:04.322Z,1.10
2023-04-29T01:46:54.176Z,1.17
2023-04-29T01:49:46.669Z,1.10
2023-04-29T01:52:33.768Z,0.90
2023-04-29T01:55:21.614Z,1.07
2023-04-29T01:58:16.722Z,1.17
2023-04-29T02:01:15.651Z,1.20
2023-04-29T02:04:03.374Z,1.27
2023-04-29T02:06:52.290Z,1.20
2023-04-29T02:09:39.338Z,1.50
2023-04-29T02:12:30.624Z,1.27
2023-04-29T02:15:17.882Z,1.23
2023-04-29T02:18:05.128Z,1.30
2023-04-29T02:21:00.866Z,1.20
2023-04-29T02:23:47.894Z,1.20
2023-04-29T02:26:35.433Z,1.40
2023-04-29T02:29:22.618Z,0.90
2023-04-29T02:32:09.683Z,0.90
2023-04-29T02:34:58.666Z,0.90
2023-04-29T02:37:45.676Z,1.10
2023-04-29T02:40:32.913Z,0.87
2023-04-29T02:43:20.108Z,0.90
2023-04-29T02:46:07.140Z,1.03
2023-04-29T02:48:59.576Z,0.90
2023-04-29T02:51:46.817Z,1.07
2023-04-29T02:54:33.882Z,1.00
2023-04-29T02:57:21.049Z,0.90
2023-04-29T03:00:09.008Z,1.00
2023-04-29T03:02:56.365Z,1.00
2023-04-29T03:05:43.497Z,1.10
2023-04-29T03:08:30.555Z,1.27
2023-04-29T03:11:17.723Z,2.00
2023-04-29T03:14:05.046Z,2.30
2023-04-29T03:16:52.285Z,2.43
2023-04-29T03:19:39.438Z,2.17
2023-04-29T03:22:27.000Z,2.40
2023-04-29T03:25:14.331Z,2.03
2023-04-29T03:28:02.063Z,2.80
2023-04-29T03:30:51.058Z,2.97
2023-04-29T03:33:38.067Z,3.00
2023-04-29T03:36:25.173Z,3.27
2023-04-29T03:39:32.643Z,3.10
2023-04-29T03:42:19.782Z,3.30
2023-04-29T03:45:07.785Z,2.93
2023-04-29T03:47:55.124Z,3.80
2023-04-29T03:50:42.316Z,3.53
2023-04-29T03:53:29.584Z,3.90
2023-04-29T03:56:17.478Z,4.40
2023-04-29T03:59:05.113Z,4.40
2023-04-29T04:01:54.121Z,4.57
2023-04-29T04:04:42.278Z,4.73
2023-04-29T04:07:29.853Z,5.40
2023-04-29T04:10:35.255Z,5.90
2023-04-29T04:13:26.676Z,6.73
2023-04-29T04:16:13.838Z,6.23
2023-04-29T04:19:01.486Z,6.57
2023-04-29T04:21:48.599Z,6.60
2023-04-29T04:24:35.627Z,7.47
2023-04-29T04:27:23.426Z,7.87
2023-04-29T04:30:10.964Z,8.37
2023-04-29T04:32:58.464Z,8.70
2023-04-29T04:35:45.629Z,8.50
2023-04-29T04:38:32.943Z,8.47
2023-04-29T04:41:20.971Z,8.63
2023-04-29T04:44:08.835Z,8.40
2023-04-29T04:47:02.699Z,8.40
2023-04-29T04:50:11.829Z,7.77
2023-04-29T04:52:59.018Z,8.20
2023-04-29T04:56:09.632Z,8.10
2023-04-29T04:58:57.363Z,7.90
2023-04-29T05:01:44.752Z,7.73
2023-04-29T05:04:32.060Z,7.97
2023-04-29T05:07:19.108Z,7.80
2023-04-29T05:10:20.915Z,7.80
2023-04-29T05:13:12.985Z,8.00
2023-04-29T05:16:05.818Z,7.93
2023-04-29T05:18:53.829Z,8.20
2023-04-29T05:21:43.692Z,8.60
2023-04-29T05:24:32.831Z,8.83
2023-04-29T05:27:20.371Z,9.10
2023-04-29T05:30:07.909Z,9.33
2023-04-29T05:32:54.920Z,9.03
2023-04-29T05:35:42.470Z,8.97
2023-04-29T05:38:30.033Z,8.77
2023-04-29T05:41:25.064Z,9.27
2023-04-29T05:44:32.851Z,9.33
2023-04-29T05:47:19.868Z,10.50
2023-04-29T05:50:07.477Z,8.80
2023-04-29T05:52:56.431Z,9.40
2023-04-29T05:55:46.776Z,9.53
2023-04-29T05:58:35.055Z,9.10
2023-04-29T06:01:22.807Z,9.73
2023-04-29T06:04:10.051Z,9.83
2023-04-29T06:07:20.197Z,10.10
2023-04-29T06:10:21.621Z,9.77
2023-04-29T06:13:09.719Z,9.60
2023-04-29T06:15:56.787Z,8.70
2023-04-29T06:18:44.144Z,8.67
2023-04-29T06:21:31.625Z,8.73
2023-04-29T06:24:20.468Z,9.40
2023-04-29T06:27:07.586Z,9.83
2023-04-29T06:29:55.136Z,8.80
2023-04-29T06:32:42.533Z,9.37
2023-04-29T06:35:29.655Z,9.33
2023-04-29T06:38:25.358Z,9.20
2023-04-29T06:41:31.044Z,9.57
2023-04-29T06:44:27.581Z,9.27
2023-04-29T06:47:33.396Z,9.13
2023-04-29T06:50:33.925Z,8.70
2023-04-29T06:53:21.910Z,9.37
2023-04-29T06:56:08.905Z,9.43
2023-04-29T06:58:56.037Z,9.00
2023-04-29T07:01:44.881Z,8.97
2023-04-29T07:04:32.889Z,9.33
2023-04-29T07:07:19.976Z,9.57
2023-04-29T07:10:07.163Z,8.80
2023-04-29T07:12:54.157Z,8.30
2023-04-29T07:15:42.338Z,8.33
2023-04-29T07:18:29.661Z,8.87
2023-04-29T07:21:17.023Z,8.70
2023-04-29T07:24:04.981Z,8.93
2023-04-29T07:26:52.090Z,9.23
2023-04-29T07:29:40.146Z,10.23
2023-04-29T07:32:27.619Z,9.50
2023-04-29T07:35:14.968Z,10.13
2023-04-29T07:38:02.035Z,10.07
2023-04-29T07:40:50.884Z,10.23
2023-04-29T07:43:39.236Z,9.63
2023-04-29T07:46:28.477Z,9.70
2023-04-29T07:49:16.801Z,10.53
2023-04-29T07:52:09.824Z,9.70
2023-04-29T07:54:56.947Z,10.00
2023-04-29T07:57:43.995Z,10.47
2023-04-29T08:00:31.508Z,11.13
2023-04-29T08:03:19.348Z,11.30
2023-04-29T08:06:07.310Z,10.70
2023-04-29T08:08:56.551Z,11.20
2023-04-29T08:11:44.850Z,10.73
2023-04-29T08:14:33.566Z,10.97
2023-04-29T08:17:20.591Z,9.00
2023-04-29T08:20:08.517Z,9.60
2023-04-29T08:22:55.514Z,9.37
2023-04-29T08:25:43.990Z,9.67
2023-04-29T08:28:31.055Z,8.77
2023-04-29T08:31:21.933Z,8.80
2023-04-29T08:34:09.009Z,8.40
2023-04-29T08:36:57.403Z,8.30
2023-04-29T08:39:46.821Z,7.53
2023-04-29T08:42:37.259Z,6.20
2023-04-29T08:45:25.182Z,6.17
2023-04-29T08:48:13.174Z,5.70
2023-04-29T08:51:02.298Z,5.90
2023-04-29T08:53:49.573Z,5.03
2023-04-29T08:56:37.372Z,4.20
2023-04-29T08:59:25.697Z,3.90
2023-04-29T09:02:18.073Z,3.30
2023-04-29T09:05:09.281Z,2.87
2023-04-29T09:07:59.721Z,2.97
2023-04-29T09:10:47.622Z,2.60
2023-04-29T09:13:34.609Z,2.60
2023-04-29T09:16:21.687Z,2.60
2023-04-29T09:19:08.886Z,2.40
2023-04-29T09:21:58.689Z,2.60
2023-04-29T09:24:45.970Z,2.77
2023-04-29T09:27:33.024Z,2.20
2023-04-29T09:30:21.130Z,2.40
2023-04-29T09:33:09.680Z,1.90
2023-04-29T09:35:56.836Z,2.47
2023-04-29T09:38:58.117Z,2.33
2023-04-29T09:41:53.957Z,2.30
2023-04-29T09:44:42.689Z,2.37
2023-04-29T09:47:31.973Z,2.27
2023-04-29T09:50:19.820Z,2.90
2023-04-29T09:53:11.586Z,2.70
2023-04-29T09:56:02.801Z,2.90
2023-04-29T09:58:49.881Z,2.80
2023-04-29T10:01:36.969Z,3.00
2023-04-29T10:04:26.366Z,3.30
2023-04-29T10:07:18.008Z,3.30
2023-04-29T10:10:06.446Z,3.83
2023-04-29T10:12:54.964Z,3.20
2023-04-29T10:15:52.540Z,2.70
2023-04-29T10:18:42.229Z,3.17
2023-04-29T10:21:33.695Z,2.90
2023-04-29T10:24:22.529Z,2.40
2023-04-29T10:27:12.592Z,2.20
2023-04-29T10:30:02.339Z,2.13
2023-04-29T10:32:52.510Z,2.20
2023-04-29T10:35:40.294Z,1.73
2023-04-29T10:38:41.592Z,2.23
2023-04-29T10:41:34.676Z,2.20
2023-04-29T10:44:21.722Z,2.07
2023-04-29T10:47:21.403Z,1.87
2023-04-29T10:50:08.783Z,2.00
2023-04-29T10:52:56.532Z,1.87
2023-04-29T10:55:47.460Z,1.83
2023-04-29T10:58:45.556Z,1.50
2023-04-29T11:01:51.437Z,2.00
2023-04-29T11:05:09.146Z,1.77
2023-04-29T11:08:24.108Z,2.00
2023-04-29T11:11:14.245Z,2.00
2023-04-29T11:14:02.546Z,1.97
2023-04-29T11:17:16.580Z,2.00
2023-04-29T11:20:04.069Z,2.10
2023-04-29T11:22:52.009Z,2.07
2023-04-29T11:25:39.652Z,1.60
2023-04-29T11:28:28.260Z,2.07
2023-04-29T11:31:15.376Z,2.10
2023-04-29T11:34:04.566Z,2.20
2023-04-29T11:36:51.974Z,2.00
2023-04-29T11:39:39.035Z,1.77
2023-04-29T11:42:26.017Z,1.90
2023-04-29T11:45:13.231Z,1.97
2023-04-29T11:48:01.138Z,1.90
2023-04-29T11:50:50.546Z,2.10
2023-04-29T11:53:37.703Z,2.13
2023-04-29T11:56:28.092Z,1.90
2023-04-29T11:59:15.272Z,2.33
2023-04-29T12:02:02.303Z,2.20
2023-04-29T12:04:49.991Z,1.90
2023-04-29T12:07:37.521Z,2.00
2023-04-29T12:10:24.536Z,1.53
2023-04-29T12:13:12.169Z,1.47
2023-04-29T12:15:59.684Z,1.63
2023-04-29T12:18:46.872Z,1.30
2023-04-29T12:21:34.318Z,1.50
2023-04-29T12:24:21.435Z,1.50
2023-04-29T12:27:10.285Z,1.40
2023-04-29T12:29:58.145Z,1.60
2023-04-29T12:32:45.383Z,1.37
2023-04-29T12:35:32.497Z,1.50
2023-04-29T12:38:31.366Z,1.33
2023-04-29T12:41:18.793Z,1.40
2023-04-29T12:44:06.665Z,1.30
2023-04-29T12:46:55.659Z,1.37
2023-04-29T12:49:48.258Z,0.97
2023-04-29T12:52:36.934Z,1.00
2023-04-29T12:55:24.455Z,1.30
2023-04-29T12:58:11.439Z,1.13
2023-04-29T13:00:59.136Z,1.40
2023-04-29T13:03:47.085Z,1.30
2023-04-29T13:06:39.357Z,1.30
2023-04-29T13:09:26.944Z,1.27
2023-04-29T13:12:13.986Z,1.60
2023-04-29T13:15:01.010Z,1.20
2023-04-29T13:17:47.986Z,1.67
2023-04-29T13:20:41.076Z,1.57
2023-04-29T13:23:28.853Z,1.57
2023-04-29T13:26:16.116Z,1.80
2023-04-29T13:29:03.126Z,2.00
2023-04-29T13:31:50.132Z,2.00
2023-04-29T13:34:37.256Z,2.10
2023-04-29T13:37:24.330Z,1.70
2023-04-29T13:40:19.781Z,2.30
2023-04-29T13:43:09.761Z,1.70
2023-04-29T13:45:57.689Z,1.80
2023-04-29T13:49:17.249Z,1.40
2023-04-29T14:00:47.274Z,1.70
2023-04-29T14:03:29.350Z,1.60
2023-04-29T14:06:17.463Z,1.73
2023-04-29T14:09:04.511Z,1.53
2023-04-29T14:11:51.567Z,1.30
2023-04-29T14:14:38.549Z,1.67
2023-04-29T14:17:25.729Z,1.40
2023-04-29T14:20:13.347Z,1.80
2023-04-29T14:23:00.572Z,2.03
2023-04-29T14:25:47.778Z,1.77
2023-04-29T14:28:36.181Z,1.70
2023-04-29T14:31:24.568Z,2.00
2023-04-29T14:34:11.912Z,1.30
2023-04-29T14:36:59.203Z,1.43
2023-04-29T14:39:46.245Z,2.00
2023-04-29T14:42:33.348Z,2.00
2023-04-29T14:45:20.450Z,1.77
2023-04-29T14:48:08.342Z,1.67
2023-04-29T14:50:55.392Z,1.70
2023-04-29T14:53:43.048Z,1.80
2023-04-29T14:56:30.204Z,1.50
2023-04-29T14:59:17.221Z,1.73
2023-04-29T15:02:04.337Z,1.33
2023-04-29T15:04:51.493Z,1.37
2023-04-29T15:07:38.784Z,1.40
2023-04-29T15:10:26.217Z,1.20
2023-04-29T15:13:13.394Z,1.00
2023-04-29T15:16:00.604Z,1.40
2023-04-29T15:18:47.992Z,1.27
2023-04-29T15:21:35.408Z,1.10
2023-04-29T15:24:22.428Z,1.30
2023-04-29T15:27:09.448Z,1.43
2023-04-29T15:29:57.562Z,1.37
2023-04-29T15:32:44.915Z,1.50
2023-04-29T15:35:31.991Z,1.40
2023-04-29T15:38:19.000Z,1.40
2023-04-29T15:41:06.792Z,1.40
2023-04-29T15:43:54.805Z,1.33
2023-04-29T15:46:41.819Z,1.40
2023-04-29T15:49:28.873Z,1.40
2023-04-29T15:52:15.861Z,1.40
2023-04-29T15:55:03.053Z,1.50
2023-04-29T15:57:51.417Z,1.37
2023-04-29T16:00:39.020Z,1.23
2023-04-29T16:03:26.767Z,1.40
2023-04-29T16:06:15.735Z,1.20
2023-04-29T16:09:03.869Z,1.70
2023-04-29T16:11:53.082Z,1.40
2023-04-29T16:14:40.125Z,1.60
2023-04-29T16:17:27.508Z,1.53
2023-04-29T16:20:14.742Z,1.50
2023-04-29T16:23:01.772Z,1.53
2023-04-29T16:25:49.003Z,1.43
2023-04-29T16:28:37.005Z,1.03
2023-04-29T16:31:24.439Z,1.30
2023-04-29T16:34:11.726Z,1.17
2023-04-29T16:36:58.756Z,1.70
2023-04-29T16:39:45.860Z,1.43
2023-04-29T16:42:32.860Z,1.60
2023-04-29T16:45:21.689Z,1.30
2023-04-29T16:48:10.854Z,1.13
2023-04-29T16:50:58.682Z,1.43
2023-04-29T16:53:45.996Z,1.43
2023-04-29T16:56:32.999Z,1.40
2023-04-29T16:59:20.029Z,1.40
2023-04-29T17:02:07.352Z,1.43
2023-04-29T17:04:54.524Z,1.40
2023-04-29T17:07:42.437Z,1.57
2023-04-29T17:10:29.437Z,1.23
2023-04-29T17:13:16.693Z,1.93
2023-04-29T17:16:04.002Z,2.80
2023-04-29T17:18:51.071Z,1.93
2023-04-29T17:21:38.104Z,1.60
2023-04-29T17:24:25.836Z,1.53
2023-04-29T17:27:13.281Z,1.10
2023-04-29T17:30:00.303Z,1.33
2023-04-29T17:32:49.597Z,1.30
2023-04-29T17:35:36.739Z,1.60
2023-04-29T17:38:23.713Z,1.23
2023-04-29T17:41:10.743Z,1.30
2023-04-29T17:43:57.818Z,1.63
2023-04-29T17:46:44.893Z,1.40
2023-04-29T17:49:31.992Z,1.50
2023-04-29T17:52:21.314Z,1.93
2023-04-29T17:55:09.415Z,1.57
2023-04-29T17:57:56.722Z,1.37
2023-04-29T18:00:45.735Z,1.30
2023-04-29T18:03:32.901Z,1.40
2023-04-29T18:06:19.927Z,1.40
2023-04-29T18:09:06.968Z,1.80
2023-04-29T18:11:54.030Z,1.43
2023-04-29T18:14:42.262Z,1.63
2023-04-29T18:17:29.434Z,1.90
2023-04-29T18:20:16.477Z,2.20
2023-04-29T18:23:03.546Z,1.70
2023-04-29T18:25:50.683Z,1.60
2023-04-29T18:28:37.654Z,1.80
2023-04-29T18:31:26.425Z,1.70
2023-04-29T18:34:14.133Z,1.77
2023-04-29T18:37:01.655Z,1.90
2023-04-29T18:39:48.722Z,1.67
2023-04-29T18:42:35.717Z,1.60
2023-04-29T18:45:22.888Z,1.50
2023-04-29T18:48:10.169Z,1.77
2023-04-29T18:51:03.820Z,1.67
2023-04-29T18:53:51.071Z,1.53
2023-04-29T18:56:40.226Z,1.80
2023-04-29T18:59:27.537Z,1.70
2023-04-29T19:02:14.908Z,1.43
2023-04-29T19:05:05.991Z,1.83
2023-04-29T19:07:53.329Z,1.83
2023-04-29T19:10:40.353Z,1.90
2023-04-29T19:13:27.729Z,2.00
2023-04-29T19:16:14.738Z,1.83
2023-04-29T19:19:01.916Z,1.90
2023-04-29T19:21:48.979Z,2.00
2023-04-29T19:24:37.056Z,2.20
2023-04-29T19:27:24.185Z,2.10
2023-04-29T19:30:12.284Z,2.00
2023-04-29T19:32:59.467Z,1.90
2023-04-29T19:35:46.636Z,2.20
2023-04-29T19:38:33.614Z,2.40
2023-04-29T19:41:20.914Z,2.30
2023-04-29T19:44:08.146Z,2.60
2023-04-29T19:46:55.475Z,2.67
2023-04-29T19:49:42.568Z,2.57
2023-04-29T19:52:29.874Z,2.40
2023-04-29T19:55:17.010Z,2.60
2023-04-29T19:58:03.973Z,2.70
2023-04-29T20:00:51.015Z,2.67
2023-04-29T20:03:39.374Z,2.53
2023-04-29T20:06:27.205Z,2.30
2023-04-29T20:09:15.424Z,2.73
2023-04-29T20:12:03.831Z,2.57
2023-04-29T20:14:50.908Z,2.60
2023-04-29T20:17:39.043Z,2.73
2023-04-29T20:20:26.711Z,2.90
2023-04-29T20:23:13.832Z,2.63
2023-04-29T20:26:01.449Z,2.23
2023-04-29T20:28:48.525Z,2.50
2023-04-29T20:31:35.587Z,2.10
2023-04-29T20:34:22.649Z,2.43
2023-04-29T20:37:09.883Z,2.70
2023-04-29T20:39:56.902Z,2.60
2023-04-29T20:42:43.949Z,2.63
2023-04-29T20:45:31.421Z,2.63
2023-04-29T20:48:18.786Z,2.40
2023-04-29T20:51:06.029Z,2.40
2023-04-29T20:53:53.081Z,2.50
2023-04-29T20:56:40.104Z,2.17
2023-04-29T20:59:27.053Z,2.90
2023-04-29T21:02:14.309Z,2.37
2023-04-29T21:05:01.639Z,2.93
2023-04-29T21:07:49.319Z,3.20
2023-04-29T21:10:36.311Z,3.47
2023-04-29T21:13:23.257Z,3.13
2023-04-29T21:16:11.256Z,2.60
2023-04-29T21:18:58.356Z,2.60
2023-04-29T21:21:45.471Z,2.60
2023-04-29T21:24:32.488Z,2.40
2023-04-29T21:27:19.685Z,2.30
2023-04-29T21:30:07.448Z,2.40
2023-04-29T21:32:54.522Z,2.23
2023-04-29T21:35:43.132Z,2.60
2023-04-29T21:38:30.138Z,2.40
2023-04-29T21:41:31.449Z,2.83
2023-04-29T21:44:18.562Z,2.60
2023-04-29T21:47:06.668Z,2.50
2023-04-29T21:49:54.799Z,2.73
2023-04-29T21:52:42.547Z,2.50
2023-04-29T21:55:29.566Z,2.60
2023-04-29T21:58:16.962Z,2.73
2023-04-29T22:01:05.559Z,2.47
2023-04-29T22:03:56.896Z,2.67
2023-04-29T22:06:44.049Z,2.20
2023-04-29T22:09:31.144Z,2.20
2023-04-29T22:12:19.286Z,2.40
2023-04-29T22:15:09.088Z,3.83
2023-04-29T22:18:01.053Z,2.97
2023-04-29T22:20:48.173Z,2.63
2023-04-29T22:23:35.165Z,3.73
2023-04-29T22:26:22.988Z,3.43
2023-04-29T22:29:10.079Z,3.27
2023-04-29T22:31:57.143Z,3.57
2023-04-29T22:34:44.132Z,3.27
2023-04-29T22:37:31.442Z,2.63
2023-04-29T22:40:18.600Z,3.37
2023-04-29T22:43:05.754Z,3.23
2023-04-29T22:45:56.554Z,3.60
2023-04-29T22:48:43.577Z,3.10
2023-04-29T22:51:31.653Z,3.43
2023-04-29T22:54:18.631Z,3.63
2023-04-29T22:57:05.593Z,3.50
2023-04-29T22:59:56.890Z,4.27
2023-04-29T23:02:44.178Z,4.20
2023-04-29T23:05:31.250Z,4.00
2023-04-29T23:08:18.295Z,3.70
2023-04-29T23:11:05.446Z,5.00
2023-04-29T23:13:52.923Z,4.03
2023-04-29T23:16:39.937Z,4.17
2023-04-29T23:19:26.951Z,3.77
2023-04-29T23:22:13.952Z,3.60
2023-04-29T23:25:01.014Z,3.93
2023-04-29T23:27:48.054Z,3.83
2023-04-29T23:30:35.017Z,4.23
2023-04-29T23:33:22.101Z,4.03
2023-04-29T23:36:09.108Z,3.80
2023-04-29T23:38:56.121Z,4.30
2023-04-29T23:41:43.096Z,4.07
2023-04-29T23:44:30.095Z,3.97
2023-04-29T23:47:17.150Z,4.10
2023-04-29T23:50:04.570Z,4.30
2023-04-29T23:52:52.134Z,3.87
2023-04-29T23:55:39.130Z,3.80
2023-04-29T23:58:26.260Z,4.07
